CheckWX is a tool to help pilots better visualize weather data.  It is not intended as a substitute for an official pre-flight weather briefing.

17:23:17 UTC

EGGP METAR
Liverpool John Lennon Airport
Liverpool, United Kingdom
Current

33 mins ago

EGGP 181650Z 27014KT 9999 SCT038 20/12 Q1009
Observed
Jul-18 @ 16:50 UTC
Wind
  • 270° at 14 KTS
Visibility
10,000+ meters
Flight Rules
VFR
Cloud Levels
  • Scattered at 3,800' AGL
Temperature
20°C / 68°F
Dewpoint
12°C / 54°F
Humidity
60%
Altimeter
29.79" Hg
Pressure
1008.92 hPa
Previous

1 hour ago

EGGP 181620Z 25014KT 9999 SCT038 20/12 Q1009
Observed
Jul-18 @ 16:20 UTC
Wind
  • 250° at 14 KTS
Visibility
10,000+ meters
Flight Rules
VFR
Cloud Levels
  • Scattered at 3,800' AGL
Temperature
20°C / 68°F
Dewpoint
12°C / 54°F
Humidity
60%
Altimeter
29.79" Hg
Pressure
1008.92 hPa
Previous

2 hours ago

EGGP 181550Z 27013KT 9999 SCT038 20/12 Q1009
Observed
Jul-18 @ 15:50 UTC
Wind
  • 270° at 13 KTS
Visibility
10,000+ meters
Flight Rules
VFR
Cloud Levels
  • Scattered at 3,800' AGL
Temperature
20°C / 68°F
Dewpoint
12°C / 54°F
Humidity
60%
Altimeter
29.79" Hg
Pressure
1008.92 hPa